Time;durP1;ratioP1;P1;durP2;ratioP2;P2;SDS_P1;SDS_P2;PMS_P1;PMS_P2;Temp;Humidity;BMP_temperature;BMP_pressure;BME280_temperature;BME280_humidity;BME280_pressure;Samples;Min_cycle;Max_cycle;Signal;HPM_P1;HPM_P2
2022/05/11 00:02:22;;;;;;;10.65;7.45;;;;;;;13.03;83.07;100878.59;5071726;28;20592;-74
2022/05/11 00:12:24;;;;;;;11.50;7.93;;;;;;;12.98;83.00;100872.47;5062403;28;20052;-74
2022/05/11 00:14:50;;;;;;;11.35;8.73;;;;;;;13.03;82.80;100890.00;5076323;28;20127;-74
2022/05/11 00:23:59;;;;;;;10.07;8.00;;;;;;;12.69;85.69;100894.47;5073080;28;20183;-73
2022/05/11 00:26:24;;;;;;;12.63;8.70;;;;;;;12.69;85.99;100889.22;5074613;28;20418;-74
2022/05/11 00:28:51;;;;;;;8.20;6.30;;;;;;;12.55;86.48;100877.78;5076103;28;20013;-74
2022/05/11 00:31:18;;;;;;;9.27;6.90;;;;;;;12.60;86.75;100902.38;5088167;28;20170;-75
2022/05/11 00:33:44;;;;;;;16.60;8.65;;;;;;;12.57;86.46;100887.47;5056444;28;20032;-75
2022/05/11 00:36:13;;;;;;;15.25;9.27;;;;;;;12.52;86.01;100875.16;5074331;28;20043;-75
2022/05/11 00:38:54;;;;;;;16.75;8.18;;;;;;;12.74;83.78;100881.31;5066907;28;20051;-75
2022/05/11 00:41:20;;;;;;;11.15;9.18;;;;;;;12.75;84.10;100865.47;5070914;28;20120;-75
2022/05/11 00:44:00;;;;;;;13.57;9.15;;;;;;;12.86;83.39;100879.50;5081490;28;20067;-73
2022/05/11 00:46:35;;;;;;;10.80;8.15;;;;;;;12.64;84.72;100859.34;5082815;28;20109;-75
2022/05/11 00:52:19;;;;;;;11.52;8.75;;;;;;;12.82;85.01;100905.84;5078678;28;20071;-75
2022/05/11 00:54:51;;;;;;;10.02;8.27;;;;;;;12.59;85.22;100869.88;5078221;28;20036;-74
2022/05/11 00:57:29;;;;;;;12.20;9.30;;;;;;;12.53;85.62;100874.31;5070210;28;20040;-75
2022/05/11 00:59:55;;;;;;;14.77;8.85;;;;;;;12.81;85.85;100896.22;5076291;28;20441;-75
2022/05/11 01:02:23;;;;;;;11.05;8.70;;;;;;;12.72;85.40;100864.63;5069908;28;20371;-74
2022/05/11 01:04:53;;;;;;;10.60;8.18;;;;;;;12.82;85.88;100905.84;5076100;28;20028;-74
2022/05/11 01:07:19;;;;;;;10.68;9.18;;;;;;;12.82;86.22;100911.13;5081262;28;20079;-75
2022/05/11 01:09:46;;;;;;;15.60;9.88;;;;;;;12.53;85.67;100856.75;5070508;28;20083;-75
2022/05/11 01:12:29;;;;;;;12.02;8.35;;;;;;;12.76;85.66;100905.84;5083649;28;20090;-74
2022/05/11 01:15:00;;;;;;;11.10;8.63;;;;;;;12.51;85.83;100855.00;5094554;28;20028;-75
2022/05/11 01:17:29;;;;;;;11.02;8.45;;;;;;;12.39;86.15;100858.50;5068294;28;20071;-76
2022/05/11 01:19:55;;;;;;;12.52;7.85;;;;;;;12.61;85.51;100881.28;5078064;28;20040;-75
2022/05/11 01:22:26;;;;;;;12.52;9.43;;;;;;;12.72;85.46;100901.50;5077625;28;20040;-75
2022/05/11 01:24:53;;;;;;;12.10;10.35;;;;;;;12.49;85.16;100867.28;5073780;28;20040;-75
2022/05/11 01:27:39;;;;;;;17.25;10.35;;;;;;;12.48;86.05;100903.25;5073094;28;20044;-74
2022/05/11 01:30:10;;;;;;;17.23;10.15;;;;;;;12.17;85.66;100883.91;5073093;28;20058;-75
2022/05/11 01:32:37;;;;;;;13.70;8.38;;;;;;;12.00;85.90;100879.50;5078791;28;20051;-75
2022/05/11 01:35:41;;;;;;;12.40;9.27;;;;;;;12.39;85.48;100903.25;5068317;28;20024;-75
2022/05/11 01:38:22;;;;;;;9.90;8.63;;;;;;;12.45;84.76;100876.91;5072049;28;20048;-75
2022/05/11 01:40:48;;;;;;;12.13;9.50;;;;;;;12.49;84.97;100909.38;5066870;28;20457;-75
2022/05/11 01:43:23;;;;;;;11.55;9.70;;;;;;;12.18;85.51;100876.03;5071504;28;21034;-75
2022/05/11 01:45:52;;;;;;;10.50;9.32;;;;;;;12.36;84.36;100888.34;5069564;28;20044;-75
2022/05/11 01:48:18;;;;;;;11.95;10.30;;;;;;;12.22;84.24;100871.63;5076977;28;20039;-75
2022/05/11 01:50:46;;;;;;;18.10;10.85;;;;;;;12.32;84.65;100883.06;5075993;28;20071;-75
2022/05/11 01:53:13;;;;;;;13.02;9.88;;;;;;;12.26;84.75;100907.63;5069034;28;20110;-75
2022/05/11 01:55:39;;;;;;;19.50;9.52;;;;;;;12.27;83.96;100869.91;5069893;28;20047;-75
2022/05/11 01:58:08;;;;;;;13.07;9.93;;;;;;;12.21;83.34;100881.28;5076070;28;20507;-75
2022/05/11 02:00:38;;;;;;;14.68;10.20;;;;;;;12.09;83.26;100876.03;5072756;28;20048;-75
2022/05/11 02:03:05;;;;;;;15.57;11.88;;;;;;;12.37;83.69;100915.53;5062720;28;20032;-75
2022/05/11 02:08:16;;;;;;;13.57;10.35;;;;;;;12.28;83.47;100899.72;5078207;28;20078;-75
2022/05/11 02:10:53;;;;;;;13.88;8.48;;;;;;;12.18;83.74;100891.81;5058041;28;20037;-75
2022/05/11 02:13:19;;;;;;;11.63;9.27;;;;;;;12.12;83.88;100893.56;5068803;28;20048;-76
2022/05/11 02:15:44;;;;;;;13.45;10.05;;;;;;;12.27;83.69;100875.19;5072564;28;20052;-75
2022/05/11 02:18:12;;;;;;;17.10;10.15;;;;;;;12.37;84.04;100913.78;5077711;28;20048;-75
2022/05/11 02:20:37;;;;;;;17.40;10.30;;;;;;;12.17;84.44;100905.84;5074107;28;20036;-75
2022/05/11 02:23:03;;;;;;;11.55;8.68;;;;;;;12.17;83.94;100886.56;5077345;28;20027;-75
2022/05/11 02:25:29;;;;;;;13.13;10.13;;;;;;;12.21;85.01;100926.03;5069091;28;20080;-75
2022/05/11 02:27:54;;;;;;;13.02;8.73;;;;;;;11.94;85.15;100883.88;5074166;28;20451;-75
2022/05/11 02:30:28;;;;;;;15.75;9.98;;;;;;;12.18;85.78;100918.13;5069481;28;20040;-74
2022/05/11 02:32:55;;;;;;;12.85;9.38;;;;;;;12.24;84.85;100907.63;5068777;28;20044;-75
2022/05/11 02:35:22;;;;;;;14.57;10.23;;;;;;;12.20;83.97;100908.50;5067440;28;20032;-75
2022/05/11 02:37:50;;;;;;;12.23;9.23;;;;;;;12.12;84.37;100890.94;5067067;28;20046;-74
2022/05/11 02:40:21;;;;;;;14.77;9.68;;;;;;;12.18;85.44;100910.25;5069803;28;20039;-74
2022/05/11 02:42:47;;;;;;;12.43;9.10;;;;;;;11.98;85.36;100856.72;5075975;28;20123;-74
2022/05/11 02:45:13;;;;;;;18.00;9.68;;;;;;;11.99;84.81;100869.00;5068437;28;20123;-74
2022/05/11 02:47:39;;;;;;;10.70;8.82;;;;;;;11.99;84.78;100880.41;5070296;28;20043;-74
2022/05/11 02:50:06;;;;;;;9.93;7.63;;;;;;;12.00;84.39;100894.44;5070925;28;20028;-74
2022/05/11 02:52:33;;;;;;;12.32;8.23;;;;;;;12.10;84.38;100908.47;5076565;28;20031;-74
2022/05/11 02:55:06;;;;;;;14.30;8.88;;;;;;;11.94;84.25;100874.25;5070008;28;20090;-74
2022/05/11 02:57:32;;;;;;;15.23;9.30;;;;;;;11.82;84.12;100858.41;5071284;28;20040;-75
2022/05/11 03:00:05;;;;;;;10.20;8.52;;;;;;;12.40;82.92;100903.22;5076096;28;20155;-74
2022/05/11 03:02:32;;;;;;;13.32;8.80;;;;;;;12.19;84.79;100901.47;5073619;28;20118;-75
2022/05/11 03:04:59;;;;;;;11.13;8.10;;;;;;;12.10;83.56;100908.47;5070051;28;20024;-74
2022/05/11 03:07:24;;;;;;;13.75;8.77;;;;;;;11.98;84.01;100869.88;5075377;28;20132;-74
2022/05/11 03:09:53;;;;;;;13.07;9.15;;;;;;;11.91;84.57;100855.81;5071811;28;20048;-74
2022/05/11 03:12:22;;;;;;;20.77;9.23;;;;;;;12.09;84.87;100893.56;5075567;28;20053;-74
2022/05/11 03:14:54;;;;;;;11.95;8.60;;;;;;;11.69;85.16;100860.16;5080370;28;20064;-73
2022/05/11 03:17:21;;;;;;;13.75;8.90;;;;;;;11.96;85.52;100880.41;5074350;28;20028;-74
2022/05/11 03:19:46;;;;;;;9.27;8.00;;;;;;;11.89;85.86;100872.47;5078422;28;20025;-74
2022/05/11 03:22:22;;;;;;;16.27;9.23;;;;;;;11.82;85.73;100866.28;5074722;28;20056;-74
2022/05/11 03:24:48;;;;;;;10.27;8.20;;;;;;;12.02;85.81;100911.97;5074345;28;20055;-74
2022/05/11 03:27:26;;;;;;;12.88;8.27;;;;;;;11.73;85.96;100872.44;5066978;28;20147;-74
2022/05/11 03:29:54;;;;;;;11.60;7.65;;;;;;;11.97;85.66;100903.19;5081743;28;20032;-74
2022/05/11 03:35:24;;;;;;;11.18;7.53;;;;;;;11.87;83.90;100888.28;5055772;28;20353;-74
2022/05/11 03:37:50;;;;;;;11.98;7.13;;;;;;;11.80;83.60;100868.94;5064684;28;23637;-74
2022/05/11 03:40:21;;;;;;;11.88;8.45;;;;;;;12.00;83.39;100928.63;5075022;28;20109;-74
2022/05/11 03:42:47;;;;;;;10.35;7.30;;;;;;;11.90;83.58;100890.91;5080151;28;20139;-74
2022/05/11 03:45:22;;;;;;;11.05;8.15;;;;;;;12.00;83.64;100905.81;5073122;28;20098;-74
2022/05/11 03:47:47;;;;;;;13.38;9.60;;;;;;;11.95;83.74;100891.78;5075362;28;20044;-74
2022/05/11 03:50:22;;;;;;;14.93;8.00;;;;;;;11.78;84.25;100889.09;5068941;28;20104;-74
2022/05/11 03:52:52;;;;;;;10.10;6.65;;;;;;;12.01;83.37;100902.34;5079484;28;20027;-74
2022/05/11 03:55:19;;;;;;;14.10;8.05;;;;;;;12.26;82.75;100926.03;5070190;28;20343;-74
2022/05/11 03:57:45;;;;;;;11.82;8.85;;;;;;;11.99;83.25;100895.31;5068690;28;20032;-75
2022/05/11 04:00:23;;;;;;;11.85;8.38;;;;;;;12.24;83.55;100940.94;5069726;28;20419;-74
2022/05/11 04:02:51;;;;;;;12.15;8.25;;;;;;;12.19;82.89;100911.09;5075706;28;20032;-74
2022/05/11 04:05:18;;;;;;;9.43;7.85;;;;;;;12.03;83.62;100912.84;5072342;28;20036;-75
2022/05/11 04:07:44;;;;;;;12.30;9.07;;;;;;;11.99;83.95;100922.47;5082030;28;20054;-74
2022/05/11 04:10:15;;;;;;;12.73;9.27;;;;;;;11.78;85.25;100919.75;5069590;28;20051;-75
2022/05/11 04:12:41;;;;;;;14.88;9.13;;;;;;;12.01;84.31;100941.78;5071029;28;20048;-75
2022/05/11 04:15:10;;;;;;;14.15;8.30;;;;;;;12.11;83.46;100921.63;5070635;28;20141;-75
2022/05/11 04:17:36;;;;;;;16.38;9.13;;;;;;;12.14;82.95;100921.63;5069721;28;20496;-75
2022/05/11 04:20:04;;;;;;;14.95;8.10;;;;;;;12.12;84.48;100938.28;5068381;28;20039;-74
2022/05/11 04:22:30;;;;;;;14.13;9.68;;;;;;;12.52;83.50;100970.78;5072231;28;20048;-75
2022/05/11 04:24:57;;;;;;;11.15;8.60;;;;;;;12.34;83.12;100924.31;5074705;28;20068;-75
2022/05/11 04:27:23;;;;;;;10.25;8.40;;;;;;;12.63;83.43;100963.78;5075174;28;20064;-75
2022/05/11 04:29:48;;;;;;;15.27;9.50;;;;;;;12.47;84.31;100912.00;5067281;28;20548;-75
2022/05/11 04:32:15;;;;;;;17.65;8.73;;;;;;;12.57;83.33;100931.31;5084065;28;20456;-75
2022/05/11 04:34:41;;;;;;;11.90;8.65;;;;;;;12.65;84.00;100963.81;5062676;28;20038;-75
2022/05/11 04:37:07;;;;;;;11.48;8.68;;;;;;;13.06;82.67;100966.41;5072367;28;20044;-75
2022/05/11 04:39:34;;;;;;;10.82;8.93;;;;;;;12.87;82.39;100912.84;5070287;28;20043;-74
2022/05/11 04:42:21;;;;;;;13.13;8.15;;;;;;;12.91;82.08;100931.31;5074774;28;20069;-74
2022/05/11 04:44:46;;;;;;;11.15;8.32;;;;;;;13.27;81.18;100967.25;5070851;28;20036;-75
2022/05/11 04:47:14;;;;;;;15.40;8.07;;;;;;;13.10;81.23;100930.41;5074329;28;20693;-75
2022/05/11 04:49:41;;;;;;;13.85;7.57;;;;;;;13.14;80.60;100936.56;5061741;28;20493;-75
2022/05/11 04:52:09;;;;;;;12.90;7.25;;;;;;;12.86;82.08;100944.50;5071975;28;20035;-76
2022/05/11 04:54:50;;;;;;;11.00;8.02;;;;;;;13.15;81.50;100965.50;5074006;28;20131;-75
2022/05/11 04:57:20;;;;;;;11.25;7.07;;;;;;;13.33;79.58;100951.47;5076052;28;20059;-76
2022/05/11 04:59:51;;;;;;;9.43;7.38;;;;;;;13.47;79.32;100986.56;5074730;28;20080;-75
2022/05/11 05:02:22;;;;;;;12.90;7.95;;;;;;;13.65;80.73;100953.09;5076410;28;20020;-75
2022/05/11 05:04:49;;;;;;;19.83;8.77;;;;;;;13.51;79.48;100934.72;5052278;28;20118;-75
2022/05/11 05:07:15;;;;;;;9.35;8.05;;;;;;;13.80;78.66;100960.09;5078624;28;20078;-75
2022/05/11 05:09:42;;;;;;;11.18;7.50;;;;;;;13.97;78.02;100957.34;5074134;28;20048;-75
2022/05/11 05:12:09;;;;;;;8.32;6.45;;;;;;;14.09;76.76;100955.56;5056669;28;20040;-74
2022/05/11 05:14:35;;;;;;;15.18;8.40;;;;;;;14.35;76.64;100965.94;5069686;28;20049;-75
2022/05/11 05:17:06;;;;;;;10.70;7.72;;;;;;;14.87;75.09;100967.34;5069205;28;20529;-75
2022/05/11 05:19:36;;;;;;;10.30;6.72;;;;;;;14.70;75.80;100916.38;5073554;28;20036;-75
2022/05/11 05:22:03;;;;;;;10.35;6.85;;;;;;;14.89;75.35;100918.00;5072163;28;20037;-75
2022/05/11 05:24:31;;;;;;;15.30;8.07;;;;;;;15.36;73.10;100951.00;5070516;28;20071;-76
2022/05/11 05:26:58;;;;;;;10.85;8.13;;;;;;;15.48;72.11;100918.22;5054199;28;20102;-74
2022/05/11 05:32:08;;;;;;;10.70;7.63;;;;;;;16.31;70.38;100961.25;5074173;28;20035;-76
2022/05/11 05:34:34;;;;;;;9.25;7.35;;;;;;;16.40;69.74;100969.94;5078322;28;20024;-74
2022/05/11 05:37:00;;;;;;;13.20;7.70;;;;;;;16.34;68.71;100932.97;5078250;28;20481;-75
2022/05/11 05:39:26;;;;;;;12.52;8.45;;;;;;;16.77;69.21;100965.84;5072367;28;20040;-75
2022/05/11 05:41:52;;;;;;;14.13;8.77;;;;;;;16.82;67.88;100943.69;5071626;28;20119;-75
2022/05/11 05:44:18;;;;;;;11.07;7.53;;;;;;;17.00;67.67;100946.94;5069043;28;20349;-73
2022/05/11 05:46:45;;;;;;;19.38;8.05;;;;;;;17.17;68.05;100965.19;5068523;28;20028;-76
2022/05/11 05:49:12;;;;;;;11.45;7.47;;;;;;;17.13;66.57;100956.41;5081729;28;20115;-73
2022/05/11 05:51:38;;;;;;;11.13;6.95;;;;;;;17.07;68.45;100957.41;5071095;28;22962;-74
2022/05/11 05:54:03;;;;;;;8.27;5.90;;;;;;;16.80;70.70;100994.97;5068766;28;20039;-74
2022/05/11 05:56:29;;;;;;;12.93;6.53;;;;;;;16.43;70.32;100959.28;5067153;28;20040;-75
2022/05/11 05:59:01;;;;;;;12.07;6.63;;;;;;;16.87;69.66;100978.94;5073670;28;20040;-76
2022/05/11 06:01:27;;;;;;;11.52;7.18;;;;;;;16.40;70.21;100961.13;5067473;28;20036;-76
2022/05/11 06:03:53;;;;;;;12.00;7.30;;;;;;;16.97;69.09;101002.66;5074577;28;20040;-76
2022/05/11 06:06:21;;;;;;;11.35;7.10;;;;;;;16.96;67.44;100977.03;5069414;28;20066;-74
2022/05/11 06:08:47;;;;;;;8.43;6.38;;;;;;;17.16;68.60;100972.28;5074856;28;20394;-74
2022/05/11 06:11:13;;;;;;;28.88;8.63;;;;;;;17.23;67.78;100960.66;5063779;28;20028;-74
2022/05/11 06:13:39;;;;;;;8.65;7.07;;;;;;;17.47;66.87;100980.53;5070825;28;20071;-75
2022/05/11 06:16:24;;;;;;;9.80;6.60;;;;;;;17.62;66.53;100960.75;5065168;28;20164;-75
2022/05/11 06:18:51;;;;;;;10.23;7.65;;;;;;;17.84;66.18;100986.88;5077554;28;20052;-75
2022/05/11 06:21:17;;;;;;;11.23;6.82;;;;;;;17.78;65.31;100965.75;5072220;28;20104;-75
2022/05/11 06:23:44;;;;;;;13.02;7.32;;;;;;;18.03;65.44;100992.72;5076924;28;20302;-75
2022/05/11 06:26:10;;;;;;;9.15;6.78;;;;;;;18.11;66.13;100972.16;5068566;28;20522;-75
2022/05/11 06:28:40;;;;;;;11.70;7.38;;;;;;;18.24;64.86;100986.03;5074750;28;20040;-75
2022/05/11 06:31:07;;;;;;;14.98;7.65;;;;;;;18.57;62.85;100989.72;5069707;28;20126;-75
2022/05/11 06:33:33;;;;;;;12.85;6.35;;;;;;;18.83;63.46;101002.41;5072251;28;20044;-75
2022/05/11 06:36:01;;;;;;;11.95;6.50;;;;;;;18.61;62.35;100971.88;5074068;28;20036;-75
2022/05/11 06:38:28;;;;;;;15.20;6.28;;;;;;;18.79;62.38;100998.06;5073441;28;20036;-73
2022/05/11 06:40:56;;;;;;;19.67;6.45;;;;;;;18.58;63.78;100959.53;5071392;28;20042;-74
2022/05/11 06:43:23;;;;;;;9.52;5.60;;;;;;;18.75;61.96;100975.97;5067035;28;20032;-74
2022/05/11 06:45:48;;;;;;;7.50;5.63;;;;;;;18.87;60.81;100974.81;5076511;28;20043;-76
2022/05/11 06:48:14;;;;;;;8.13;6.25;;;;;;;18.69;60.74;100967.25;5072437;28;20064;-74
2022/05/11 06:50:42;;;;;;;9.27;6.80;;;;;;;18.74;62.81;100976.88;5073059;28;20048;-75
2022/05/11 06:53:13;;;;;;;12.77;6.30;;;;;;;18.87;61.18;100985.47;5070489;28;20051;-76
2022/05/11 07:01:09;;;;;;;10.20;6.28;;;;;;;19.19;59.72;101005.88;5075658;28;20044;-74
2022/05/11 07:03:35;;;;;;;8.40;5.43;;;;;;;18.90;60.51;100958.78;5067602;28;20052;-74
2022/05/11 07:06:01;;;;;;;11.43;5.43;;;;;;;18.90;60.11;100958.78;5066957;28;20048;-74
2022/05/11 07:08:38;;;;;;;9.52;5.75;;;;;;;18.97;60.34;100957.69;5071987;28;20040;-78
2022/05/11 07:13:48;;;;;;;8.95;5.65;;;;;;;19.28;59.62;100954.22;5072251;28;20134;-73
2022/05/11 07:19:42;;;;;;;7.43;5.05;;;;;;;19.65;58.25;100970.97;5079280;28;20042;-73
2022/05/11 07:25:30;;;;;;;16.60;6.90;;;;;;;19.47;59.85;100998.97;5080337;28;20050;-76
2022/05/11 07:31:18;;;;;;;5.93;4.15;;;;;;;19.33;59.52;100986.91;5082687;28;20363;-77
2022/05/11 07:37:06;;;;;;;12.27;5.38;;;;;;;19.57;57.36;100974.72;5080516;28;20047;-76
2022/05/11 07:39:32;;;;;;;5.70;4.25;;;;;;;19.60;56.36;100961.31;5074993;28;20063;-77
2022/05/11 07:41:59;;;;;;;11.45;5.70;;;;;;;19.79;56.74;100963.47;5077215;28;20472;-74
2022/05/11 07:44:26;;;;;;;7.57;5.40;;;;;;;19.58;58.36;100960.47;5081075;28;20040;-74
2022/05/11 07:46:53;;;;;;;8.18;4.75;;;;;;;19.94;55.61;100991.44;5074292;28;20384;-74
2022/05/11 07:49:20;;;;;;;17.88;3.85;;;;;;;19.50;55.79;100962.50;5074707;28;20044;-74
2022/05/11 07:51:46;;;;;;;7.25;4.80;;;;;;;19.80;55.52;100973.19;5075627;28;20059;-74
2022/05/11 07:54:13;;;;;;;7.70;4.75;;;;;;;19.94;56.40;100965.66;5075895;28;20024;-74
2022/05/11 08:02:08;;;;;;;8.35;3.72;;;;;;;20.00;56.35;100959.31;5072399;28;20108;-74
2022/05/11 08:04:46;;;;;;;8.63;4.45;;;;;;;20.26;56.30;100965.63;5079979;28;20028;-74
2022/05/11 08:07:25;;;;;;;9.60;4.85;;;;;;;20.51;56.68;101009.25;5065236;28;20090;-74
2022/05/11 08:09:50;;;;;;;14.10;4.88;;;;;;;20.45;55.46;100980.09;5057187;28;20044;-73
2022/05/11 08:12:16;;;;;;;7.05;4.28;;;;;;;20.51;54.21;100971.94;5054632;28;20044;-74
2022/05/11 08:14:41;;;;;;;7.60;4.22;;;;;;;20.58;55.82;100954.84;5052894;28;20582;-74
2022/05/11 08:17:08;;;;;;;7.97;5.13;;;;;;;20.81;53.20;100961.19;5058648;28;20103;-74
2022/05/11 08:19:34;;;;;;;6.40;3.85;;;;;;;20.52;55.22;100951.47;5054160;28;20048;-74
2022/05/11 08:21:59;;;;;;;7.07;4.45;;;;;;;20.43;56.57;100952.63;5044625;28;20028;-74
2022/05/11 08:24:27;;;;;;;10.88;4.38;;;;;;;20.98;53.71;100989.97;5055464;28;20040;-74
2022/05/11 08:26:53;;;;;;;8.65;4.25;;;;;;;20.98;51.54;100960.63;5057203;28;20036;-72
2022/05/11 08:34:51;;;;;;;7.60;3.05;;;;;;;21.42;50.70;100968.88;5063905;28;20206;-75
2022/05/11 08:37:19;;;;;;;6.32;3.33;;;;;;;20.60;51.97;100946.75;5058075;28;20082;-77
2022/05/11 08:39:48;;;;;;;5.35;3.25;;;;;;;20.68;51.89;100942.06;5054427;28;20032;-76
2022/05/11 08:42:25;;;;;;;4.00;2.78;;;;;;;21.37;49.43;100965.47;5056852;28;20510;-76
2022/05/11 08:44:50;;;;;;;6.18;3.25;;;;;;;21.92;48.71;100977.69;5051345;28;20052;-77
2022/05/11 08:47:47;;;;;;;6.45;2.30;;;;;;;21.36;46.72;100935.25;5060693;28;20055;-76
2022/05/11 08:50:19;;;;;;;5.10;3.22;;;;;;;21.98;47.97;100965.03;5062331;28;20060;-76
2022/05/11 08:52:59;;;;;;;3.07;1.90;;;;;;;21.47;46.88;100945.56;5052908;28;20037;-76
2022/05/11 08:58:53;;;;;;;4.20;2.28;;;;;;;22.18;48.51;100966.94;5054990;28;20110;-77
2022/05/11 09:01:42;;;;;;;;;;;;;;;22.65;46.45;100977.53;5053550;28;20124;-77
2022/05/11 09:04:11;;;;;;;7.57;3.15;;;;;;;23.09;47.95;100924.84;5060317;28;19939;-77
2022/05/11 09:06:38;;;;;;;5.68;3.53;;;;;;;23.45;44.74;100932.16;5057146;28;20094;-76
2022/05/11 09:09:04;;;;;;;8.95;2.97;;;;;;;23.50;46.59;100970.31;5058296;28;20037;-77
2022/05/11 09:11:41;;;;;;;7.05;3.53;;;;;;;22.63;45.07;100940.16;5060378;28;20033;-76
2022/05/11 09:14:08;;;;;;;7.40;4.05;;;;;;;22.59;46.37;100927.81;5051084;28;20112;-76
2022/05/11 09:16:41;;;;;;;7.55;3.15;;;;;;;23.65;47.06;100944.66;5045792;28;20116;-76
2022/05/11 09:19:54;;;;;;;6.35;2.95;;;;;;;24.04;45.59;100922.28;5072753;28;20045;-76
2022/05/11 09:22:25;;;;;;;7.00;3.25;;;;;;;23.87;41.68;100949.06;5064347;28;20043;-76
2022/05/11 09:24:56;;;;;;;5.65;3.25;;;;;;;24.55;42.30;100930.59;5063259;28;20075;-76
2022/05/11 09:27:30;;;;;;;5.72;3.28;;;;;;;24.44;41.58;100904.25;5060866;28;20060;-76
2022/05/11 09:30:05;;;;;;;11.00;2.72;;;;;;;24.73;40.65;100907.34;5047952;28;20119;-76
2022/05/11 09:32:38;;;;;;;3.80;2.90;;;;;;;24.31;41.75;100933.50;5059445;28;20063;-74
2022/05/11 09:35:34;;;;;;;6.80;2.30;;;;;;;24.80;40.16;100908.75;5049908;28;20052;-74
2022/05/11 09:38:29;;;;;;;10.18;3.33;;;;;;;25.15;39.80;100908.72;5055087;28;20468;-75
2022/05/11 09:41:19;;;;;;;8.70;3.92;;;;;;;25.40;41.44;100910.97;5059516;28;20033;-75
2022/05/11 09:43:55;;;;;;;15.40;5.15;;;;;;;25.48;37.88;100887.28;5051128;28;20083;-74
2022/05/11 09:46:26;;;;;;;7.78;4.90;;;;;;;25.05;39.21;100930.69;5047526;28;20195;-74
2022/05/11 09:49:16;;;;;;;10.85;4.85;;;;;;;24.60;36.61;100882.91;5054326;28;20060;-75
2022/05/11 09:51:45;;;;;;;14.65;7.47;;;;;;;24.73;38.78;100913.56;5051090;28;20052;-74
2022/05/11 09:54:46;;;;;;;40.15;15.27;;;;;;;25.71;37.98;100902.13;5051680;28;20044;-74
2022/05/11 09:57:12;;;;;;;53.35;21.42;;;;;;;25.54;37.59;100875.31;5052403;28;20040;-75
2022/05/11 09:59:50;;;;;;;50.50;19.23;;;;;;;25.46;37.96;100883.78;5058018;28;20040;-75
2022/05/11 10:02:35;;;;;;;54.55;20.77;;;;;;;25.55;37.52;100898.56;5057782;28;20031;-75
2022/05/11 10:05:51;;;;;;;48.72;19.38;;;;;;;26.18;37.75;100869.03;5057845;28;20075;-75
2022/05/11 10:08:28;;;;;;;50.05;18.35;;;;;;;25.62;35.09;100859.63;5057017;28;20168;-77
2022/05/11 10:11:02;;;;;;;60.30;19.05;;;;;;;25.49;34.30;100867.50;5053029;28;20379;-76
2022/05/11 10:13:57;;;;;;;46.67;15.90;;;;;;;24.51;34.92;100849.38;5053612;28;20060;-77
2022/05/11 10:22:36;;;;;;;37.63;13.90;;;;;;;25.83;34.41;100874.56;5048464;28;20067;-77
2022/05/11 10:25:41;;;;;;;39.70;14.57;;;;;;;26.52;34.57;100885.88;5052360;28;21286;-76
2022/05/11 10:28:27;;;;;;;39.33;14.27;;;;;;;26.98;34.02;100877.75;5053839;28;20044;-76
2022/05/11 10:31:02;;;;;;;34.97;14.23;;;;;;;26.97;35.21;100877.84;5054621;28;20041;-76
2022/05/11 10:33:56;;;;;;;48.67;16.98;;;;;;;27.05;33.48;100854.00;5048421;28;20037;-76
2022/05/11 10:36:35;;;;;;;40.03;15.18;;;;;;;27.49;35.33;100870.09;5048753;28;20049;-75
2022/05/11 10:39:36;;;;;;;35.75;13.20;;;;;;;27.12;35.31;100858.03;5069073;28;20477;-66
2022/05/11 10:45:34;;;;;;;48.00;16.30;;;;;;;26.13;36.09;100860.34;5077124;28;20102;-71
2022/05/11 10:48:23;;;;;;;32.40;12.82;;;;;;;26.36;37.86;100847.34;5072944;28;20032;-67
2022/05/11 10:51:10;;;;;;;34.65;12.60;;;;;;;26.12;35.56;100845.16;5062105;28;20079;-66
2022/05/11 10:58:01;;;;;;;30.20;11.85;;;;;;;26.38;35.85;100843.63;5073615;28;20044;-68
2022/05/11 11:08:58;;;;;;;23.08;10.20;;;;;;;26.56;36.25;100839.00;5034054;28;20051;-67
2022/05/11 11:11:57;;;;;;;31.80;11.77;;;;;;;26.20;35.01;100824.06;5030561;28;20041;-67
2022/05/11 11:14:32;;;;;;;29.75;11.32;;;;;;;25.34;35.64;100820.84;5069778;28;20274;-67
2022/05/11 11:20:20;;;;;;;30.30;11.48;;;;;;;25.00;36.24;100808.34;5074360;28;20105;-71
2022/05/11 11:23:04;;;;;;;39.05;14.85;;;;;;;25.51;37.76;100852.16;5073570;28;20055;-71
2022/05/11 11:29:00;;;;;;;13.23;4.65;;;;;;;24.44;38.44;100816.63;5074735;28;20043;-68
2022/05/11 11:34:51;;;;;;;31.55;10.68;;;;;;;24.17;37.19;100809.97;5051617;28;20063;-70
2022/05/11 11:51:58;;;;;;;26.05;7.43;;;;;;;25.06;36.67;100842.94;4295064;27;22120393;-86
2022/05/11 11:58:56;;;;;;;;;;;;;;;;;;;;;
2022/05/11 12:05:42;;;;;;;;;;;;;;;;;;;;;
2022/05/11 12:15:02;;;;;;;18.90;10.05;;;;;;;24.47;36.95;100795.94;4965649;28;20109;-77
2022/05/11 12:17:42;;;;;;;13.02;6.65;;;;;;;24.51;36.39;100784.97;5070140;28;20518;-77
2022/05/11 12:20:17;;;;;;;16.23;7.80;;;;;;;24.98;35.58;100802.19;5091880;27;20039;-77
2022/05/11 12:22:52;;;;;;;18.63;8.18;;;;;;;24.89;36.02;100810.75;5094875;28;20036;-77
2022/05/11 12:25:19;;;;;;;14.90;7.47;;;;;;;24.76;37.36;100765.75;5087686;27;20059;-69
2022/05/11 12:27:45;;;;;;;5.47;2.28;;;;;;;24.71;36.58;100796.50;5090433;28;20067;-70
2022/05/11 12:30:24;;;;;;;5.30;2.08;;;;;;;24.68;37.26;100794.84;5094869;28;20047;-71
2022/05/11 12:33:02;;;;;;;8.35;3.63;;;;;;;24.19;40.61;100784.81;5093734;28;20066;-69
2022/05/11 12:35:30;;;;;;;7.97;2.85;;;;;;;24.05;41.21;100791.81;5092525;28;20535;-69
2022/05/11 12:38:11;;;;;;;5.60;2.17;;;;;;;24.63;37.51;100797.78;5096701;28;20092;-70
2022/05/11 12:40:51;;;;;;;10.45;2.40;;;;;;;24.67;36.35;100781.50;5096419;28;20071;-70
2022/05/11 12:43:34;;;;;;;6.70;3.05;;;;;;;24.12;39.55;100783.38;5092651;28;20063;-72
2022/05/11 12:46:19;;;;;;;9.18;2.83;;;;;;;24.74;37.02;100773.03;5092247;27;20677;-73
2022/05/11 12:48:54;;;;;;;4.80;2.33;;;;;;;24.65;34.86;100725.22;5089754;27;20151;-75
2022/05/11 12:51:29;;;;;;;9.40;4.05;;;;;;;25.13;34.65;100766.47;5085003;28;20051;-75
2022/05/11 12:53:58;;;;;;;7.22;2.72;;;;;;;25.06;33.90;100770.44;5081878;28;20037;-75
2022/05/11 12:56:31;;;;;;;9.00;3.35;;;;;;;25.09;33.58;100775.63;5080018;28;20044;-77
2022/05/11 12:59:02;;;;;;;7.00;3.40;;;;;;;24.95;34.62;100776.38;5084158;28;20040;-77
2022/05/11 13:01:35;;;;;;;3.90;2.05;;;;;;;24.82;34.77;100765.44;5079257;28;20059;-73
2022/05/11 13:04:16;;;;;;;5.50;2.20;;;;;;;24.57;34.50;100760.50;5097316;27;20056;-75
2022/05/11 13:06:46;;;;;;;3.53;2.13;;;;;;;24.41;33.47;100770.28;5074472;28;20083;-74
2022/05/11 13:09:23;;;;;;;3.83;2.17;;;;;;;23.98;34.25;100730.44;5083120;28;20051;-74
2022/05/11 13:11:50;;;;;;;8.63;3.08;;;;;;;24.12;34.39;100740.47;5077575;28;20051;-74
2022/05/11 13:14:22;;;;;;;3.72;2.05;;;;;;;24.51;35.68;100763.50;5080611;28;20115;-75
2022/05/11 13:17:02;;;;;;;4.43;2.10;;;;;;;24.32;35.03;100755.53;5082001;28;20028;-76
2022/05/11 13:19:32;;;;;;;5.05;2.50;;;;;;;24.39;34.14;100767.66;5088184;28;20051;-79
2022/05/11 13:22:01;;;;;;;7.60;3.03;;;;;;;24.12;35.42;100726.22;5081140;28;20071;-75
2022/05/11 13:24:57;;;;;;;18.33;2.92;;;;;;;23.93;35.44;100708.38;5078899;27;20059;-75
2022/05/11 13:27:37;;;;;;;5.82;2.05;;;;;;;24.04;35.66;100728.41;5059425;28;20072;-76
2022/05/11 13:30:21;;;;;;;3.95;2.08;;;;;;;24.21;36.81;100757.91;5079237;28;20093;-76
2022/05/11 13:32:53;;;;;;;2.85;1.75;;;;;;;24.15;35.35;100737.63;5079186;28;20048;-76
2022/05/11 13:35:26;;;;;;;9.85;1.90;;;;;;;24.27;34.76;100724.53;5086880;28;20038;-74
2022/05/11 13:38:10;;;;;;;4.95;1.98;;;;;;;24.15;34.67;100701.91;5078845;28;20033;-74
2022/05/11 13:40:55;;;;;;;8.07;4.38;;;;;;;24.56;34.27;100745.38;5081577;28;20487;-74
2022/05/11 13:43:25;;;;;;;9.27;2.13;;;;;;;24.54;33.91;100736.53;5079231;28;20040;-75
2022/05/11 13:46:03;;;;;;;3.55;1.98;;;;;;;24.47;33.19;100745.84;5064540;28;20052;-75
2022/05/11 13:48:43;;;;;;;4.30;1.85;;;;;;;24.42;33.92;100742.53;5083240;28;20048;-77